Saint Leon, Idaho
Current Conditions -  °F | °C
As of 12:53 PM on Wednesday 17 Dec 2014 (Local Time) from KIDA Reporting Station
Moderate Fog Moderate Fog  
Wind Chill: 31°   Ceiling: 200
Heat Index: 31°   Visibility: 0.12mi
Dew Point: 28°   Wind: 0mph
Humidity: 89%   Direction: NA
Pressure: 29.99"   Gusts: NA
Location:  43.498°N, 111.73°W
Report Text: KIDA 171953Z 00000KT 1/8SM R20/1200V1400FT FZFG VV002 M01/M02 A2999 RMK AO2 SLP178 T10061022
Loading
Personal Weather Stations






























Interactive Weather Map New forecast layout! Learn more

10-Day Weather Forecast

Advertisements
Track Severe Weather on mobile